Terminal Aerodrome Forecast
Issued by NWS Cleveland, OH

Home | Current Version | Previous Version | Text Only | Print | Product List | Glossary Off
Versions: 1 2 3 4 5 6 7 8 9 10 11 12 13 14 15 16 17 18 19 20 21

000
FTUS41 KCLE 161700
TAFERI
TAF
KERI 161736Z 1618/1718 16010KT P6SM SCT015 OVC035
      TEMPO 1618/1621 5SM -SHRA OVC015
     FM162100 21010KT 4SM -SHRA BR OVC012
     FM170500 23012G20KT 6SM BR OVC010
     FM171300 25015G25KT 6SM -SN OVC012=

USA.gov is the U.S. government's official web portal to all federal, state and local government web resources and services.